sensor_id;sensor_type;location;lat;lon;timestamp;temperature;humidity
20141;DHT22;10231;47.702;9.826;2023-09-30T00:01:01;17.90;99.90
20141;DHT22;10231;47.702;9.826;2023-09-30T00:03:27;17.90;99.90
20141;DHT22;10231;47.702;9.826;2023-09-30T00:05:54;17.90;99.90
20141;DHT22;10231;47.702;9.826;2023-09-30T00:08:19;17.90;99.90
20141;DHT22;10231;47.702;9.826;2023-09-30T00:10:45;17.80;99.90
20141;DHT22;10231;47.702;9.826;2023-09-30T00:13:12;17.80;99.90
20141;DHT22;10231;47.702;9.826;2023-09-30T00:15:38;17.80;99.90
20141;DHT22;10231;47.702;9.826;2023-09-30T00:18:03;17.80;99.90
20141;DHT22;10231;47.702;9.826;2023-09-30T00:20:29;17.80;99.90
20141;DHT22;10231;47.702;9.826;2023-09-30T00:22:55;17.80;99.90
20141;DHT22;10231;47.702;9.826;2023-09-30T00:25:20;17.80;99.90
20141;DHT22;10231;47.702;9.826;2023-09-30T00:27:47;17.80;99.90
20141;DHT22;10231;47.702;9.826;2023-09-30T00:30:13;17.80;99.90
20141;DHT22;10231;47.702;9.826;2023-09-30T00:32:38;17.80;99.90
20141;DHT22;10231;47.702;9.826;2023-09-30T00:35:08;17.80;99.90
20141;DHT22;10231;47.702;9.826;2023-09-30T00:37:40;17.80;99.90
20141;DHT22;10231;47.702;9.826;2023-09-30T00:40:06;17.80;99.90
20141;DHT22;10231;47.702;9.826;2023-09-30T00:42:32;17.80;99.90
20141;DHT22;10231;47.702;9.826;2023-09-30T00:44:58;17.70;99.90
20141;DHT22;10231;47.702;9.826;2023-09-30T00:47:24;17.70;99.90
20141;DHT22;10231;47.702;9.826;2023-09-30T00:49:51;17.70;99.90
20141;DHT22;10231;47.702;9.826;2023-09-30T00:52:19;17.70;99.90
20141;DHT22;10231;47.702;9.826;2023-09-30T00:54:45;17.70;99.90
20141;DHT22;10231;47.702;9.826;2023-09-30T00:57:13;17.70;99.90
20141;DHT22;10231;47.702;9.826;2023-09-30T00:59:38;17.70;99.90
20141;DHT22;10231;47.702;9.826;2023-09-30T01:02:06;17.70;99.90
20141;DHT22;10231;47.702;9.826;2023-09-30T01:04:32;17.70;99.90
20141;DHT22;10231;47.702;9.826;2023-09-30T01:06:57;17.60;99.90
20141;DHT22;10231;47.702;9.826;2023-09-30T01:09:23;17.70;99.90
20141;DHT22;10231;47.702;9.826;2023-09-30T01:11:50;17.70;99.90
20141;DHT22;10231;47.702;9.826;2023-09-30T01:14:32;17.70;99.90
20141;DHT22;10231;47.702;9.826;2023-09-30T01:17:00;17.60;99.90
20141;DHT22;10231;47.702;9.826;2023-09-30T01:19:26;17.60;99.90
20141;DHT22;10231;47.702;9.826;2023-09-30T01:21:56;17.60;99.90
20141;DHT22;10231;47.702;9.826;2023-09-30T01:24:29;17.50;99.90
20141;DHT22;10231;47.702;9.826;2023-09-30T01:26:56;17.50;99.90
20141;DHT22;10231;47.702;9.826;2023-09-30T01:29:21;17.50;99.90
20141;DHT22;10231;47.702;9.826;2023-09-30T01:31:50;17.50;99.90
20141;DHT22;10231;47.702;9.826;2023-09-30T01:34:16;17.40;99.90
20141;DHT22;10231;47.702;9.826;2023-09-30T01:36:43;17.40;99.90
20141;DHT22;10231;47.702;9.826;2023-09-30T01:39:10;17.40;99.90
20141;DHT22;10231;47.702;9.826;2023-09-30T01:41:37;17.40;99.90
20141;DHT22;10231;47.702;9.826;2023-09-30T01:44:02;17.20;99.90
20141;DHT22;10231;47.702;9.826;2023-09-30T01:46:28;17.20;99.90
20141;DHT22;10231;47.702;9.826;2023-09-30T01:48:54;17.20;99.90
20141;DHT22;10231;47.702;9.826;2023-09-30T01:51:19;17.20;99.90
20141;DHT22;10231;47.702;9.826;2023-09-30T01:53:45;17.10;99.90
20141;DHT22;10231;47.702;9.826;2023-09-30T01:56:10;17.20;99.90
20141;DHT22;10231;47.702;9.826;2023-09-30T01:58:36;17.10;99.90
20141;DHT22;10231;47.702;9.826;2023-09-30T02:01:04;17.10;99.90
20141;DHT22;10231;47.702;9.826;2023-09-30T02:03:30;17.10;99.90
20141;DHT22;10231;47.702;9.826;2023-09-30T02:05:57;17.10;99.90
20141;DHT22;10231;47.702;9.826;2023-09-30T02:08:23;17.10;99.90
20141;DHT22;10231;47.702;9.826;2023-09-30T02:10:49;17.10;99.90
20141;DHT22;10231;47.702;9.826;2023-09-30T02:13:16;17.00;99.90
20141;DHT22;10231;47.702;9.826;2023-09-30T02:15:42;17.00;99.90
20141;DHT22;10231;47.702;9.826;2023-09-30T02:18:08;17.00;99.90
20141;DHT22;10231;47.702;9.826;2023-09-30T02:20:35;16.90;99.90
20141;DHT22;10231;47.702;9.826;2023-09-30T02:23:01;17.00;99.90
20141;DHT22;10231;47.702;9.826;2023-09-30T02:25:27;17.00;99.90
20141;DHT22;10231;47.702;9.826;2023-09-30T02:27:54;16.90;99.90
20141;DHT22;10231;47.702;9.826;2023-09-30T02:30:20;16.80;99.90
20141;DHT22;10231;47.702;9.826;2023-09-30T02:32:46;16.80;99.90
20141;DHT22;10231;47.702;9.826;2023-09-30T02:35:12;16.70;99.90
20141;DHT22;10231;47.702;9.826;2023-09-30T02:37:39;16.70;99.90
20141;DHT22;10231;47.702;9.826;2023-09-30T02:40:06;16.70;99.90
20141;DHT22;10231;47.702;9.826;2023-09-30T02:42:39;16.60;99.90
20141;DHT22;10231;47.702;9.826;2023-09-30T02:45:06;16.60;99.90
20141;DHT22;10231;47.702;9.826;2023-09-30T02:47:33;16.60;99.90
20141;DHT22;10231;47.702;9.826;2023-09-30T02:49:59;16.60;99.90
20141;DHT22;10231;47.702;9.826;2023-09-30T02:52:25;16.50;99.90
20141;DHT22;10231;47.702;9.826;2023-09-30T02:54:51;16.40;99.90
20141;DHT22;10231;47.702;9.826;2023-09-30T02:57:17;16.50;99.90
20141;DHT22;10231;47.702;9.826;2023-09-30T02:59:43;16.50;99.90
20141;DHT22;10231;47.702;9.826;2023-09-30T03:02:10;16.40;99.90
20141;DHT22;10231;47.702;9.826;2023-09-30T03:04:36;16.40;99.90
20141;DHT22;10231;47.702;9.826;2023-09-30T03:07:02;16.40;99.90
20141;DHT22;10231;47.702;9.826;2023-09-30T03:09:28;16.40;99.90
20141;DHT22;10231;47.702;9.826;2023-09-30T03:11:53;16.40;99.90
20141;DHT22;10231;47.702;9.826;2023-09-30T03:14:21;16.40;99.90
20141;DHT22;10231;47.702;9.826;2023-09-30T03:16:48;16.40;99.90
20141;DHT22;10231;47.702;9.826;2023-09-30T03:19:14;16.40;99.90
20141;DHT22;10231;47.702;9.826;2023-09-30T03:21:42;16.30;99.90
20141;DHT22;10231;47.702;9.826;2023-09-30T03:24:07;16.30;99.90
20141;DHT22;10231;47.702;9.826;2023-09-30T03:26:33;16.30;99.90
20141;DHT22;10231;47.702;9.826;2023-09-30T03:28:59;16.30;99.90
20141;DHT22;10231;47.702;9.826;2023-09-30T03:31:24;16.30;99.90
20141;DHT22;10231;47.702;9.826;2023-09-30T03:33:50;16.30;99.90
20141;DHT22;10231;47.702;9.826;2023-09-30T03:36:22;16.20;99.90
20141;DHT22;10231;47.702;9.826;2023-09-30T03:38:52;16.20;99.90
20141;DHT22;10231;47.702;9.826;2023-09-30T03:41:24;16.30;99.90
20141;DHT22;10231;47.702;9.826;2023-09-30T03:43:49;16.30;99.90
20141;DHT22;10231;47.702;9.826;2023-09-30T03:46:15;16.30;99.90
20141;DHT22;10231;47.702;9.826;2023-09-30T03:48:41;16.30;99.90
20141;DHT22;10231;47.702;9.826;2023-09-30T03:51:12;16.30;99.90
20141;DHT22;10231;47.702;9.826;2023-09-30T03:53:43;16.30;99.90
20141;DHT22;10231;47.702;9.826;2023-09-30T03:56:08;16.30;99.90
20141;DHT22;10231;47.702;9.826;2023-09-30T03:58:40;16.30;99.90
20141;DHT22;10231;47.702;9.826;2023-09-30T04:01:06;16.20;99.90
20141;DHT22;10231;47.702;9.826;2023-09-30T04:03:33;16.20;99.90
20141;DHT22;10231;47.702;9.826;2023-09-30T04:06:01;16.20;99.90
20141;DHT22;10231;47.702;9.826;2023-09-30T04:08:26;16.20;99.90
20141;DHT22;10231;47.702;9.826;2023-09-30T04:10:52;16.30;99.90
20141;DHT22;10231;47.702;9.826;2023-09-30T04:13:17;16.30;99.90
20141;DHT22;10231;47.702;9.826;2023-09-30T04:15:47;16.20;99.90
20141;DHT22;10231;47.702;9.826;2023-09-30T04:18:14;16.20;99.90
20141;DHT22;10231;47.702;9.826;2023-09-30T04:20:40;16.20;99.90
20141;DHT22;10231;47.702;9.826;2023-09-30T04:23:07;16.20;99.90
20141;DHT22;10231;47.702;9.826;2023-09-30T04:25:35;16.10;99.90
20141;DHT22;10231;47.702;9.826;2023-09-30T04:28:00;16.00;99.90
20141;DHT22;10231;47.702;9.826;2023-09-30T04:30:27;16.00;99.90
20141;DHT22;10231;47.702;9.826;2023-09-30T04:32:54;16.00;99.90
20141;DHT22;10231;47.702;9.826;2023-09-30T04:35:20;16.00;99.90
20141;DHT22;10231;47.702;9.826;2023-09-30T04:37:47;16.10;99.90
20141;DHT22;10231;47.702;9.826;2023-09-30T04:40:12;16.10;99.90
20141;DHT22;10231;47.702;9.826;2023-09-30T04:42:42;16.00;99.90
20141;DHT22;10231;47.702;9.826;2023-09-30T04:45:10;16.00;99.90
20141;DHT22;10231;47.702;9.826;2023-09-30T04:47:36;16.00;99.90
20141;DHT22;10231;47.702;9.826;2023-09-30T04:50:05;16.00;99.90
20141;DHT22;10231;47.702;9.826;2023-09-30T04:52:32;16.00;99.90
20141;DHT22;10231;47.702;9.826;2023-09-30T04:54:58;15.90;99.90
20141;DHT22;10231;47.702;9.826;2023-09-30T04:57:25;16.00;99.90
20141;DHT22;10231;47.702;9.826;2023-09-30T04:59:51;16.00;99.90
20141;DHT22;10231;47.702;9.826;2023-09-30T05:02:16;16.00;99.90
20141;DHT22;10231;47.702;9.826;2023-09-30T05:04:42;15.90;99.90
20141;DHT22;10231;47.702;9.826;2023-09-30T05:07:08;15.90;99.90
20141;DHT22;10231;47.702;9.826;2023-09-30T05:09:34;15.90;99.90
20141;DHT22;10231;47.702;9.826;2023-09-30T05:11:59;15.90;99.90
20141;DHT22;10231;47.702;9.826;2023-09-30T05:14:25;16.00;99.90
20141;DHT22;10231;47.702;9.826;2023-09-30T05:16:53;16.00;99.90
20141;DHT22;10231;47.702;9.826;2023-09-30T05:19:18;15.90;99.90
20141;DHT22;10231;47.702;9.826;2023-09-30T05:21:44;15.90;99.90
20141;DHT22;10231;47.702;9.826;2023-09-30T05:24:10;15.90;99.90
20141;DHT22;10231;47.702;9.826;2023-09-30T05:26:36;16.00;99.90
20141;DHT22;10231;47.702;9.826;2023-09-30T05:29:01;16.00;99.90
20141;DHT22;10231;47.702;9.826;2023-09-30T05:31:28;16.00;99.90
20141;DHT22;10231;47.702;9.826;2023-09-30T05:33:54;16.00;99.90
20141;DHT22;10231;47.702;9.826;2023-09-30T05:36:20;16.00;99.90
20141;DHT22;10231;47.702;9.826;2023-09-30T05:38:46;16.00;99.90
20141;DHT22;10231;47.702;9.826;2023-09-30T05:41:14;15.90;99.90
20141;DHT22;10231;47.702;9.826;2023-09-30T05:43:40;15.90;99.90
20141;DHT22;10231;47.702;9.826;2023-09-30T05:46:08;15.90;99.90
20141;DHT22;10231;47.702;9.826;2023-09-30T05:48:34;15.90;99.90
20141;DHT22;10231;47.702;9.826;2023-09-30T05:51:00;15.90;99.90
20141;DHT22;10231;47.702;9.826;2023-09-30T05:53:26;15.90;99.90
20141;DHT22;10231;47.702;9.826;2023-09-30T05:55:53;15.90;99.90
20141;DHT22;10231;47.702;9.826;2023-09-30T05:58:19;15.90;99.90
20141;DHT22;10231;47.702;9.826;2023-09-30T06:00:44;15.90;99.90
20141;DHT22;10231;47.702;9.826;2023-09-30T06:03:10;15.90;99.90
20141;DHT22;10231;47.702;9.826;2023-09-30T06:05:40;15.90;99.90
20141;DHT22;10231;47.702;9.826;2023-09-30T06:08:08;15.90;99.90
20141;DHT22;10231;47.702;9.826;2023-09-30T06:10:36;16.00;99.90
20141;DHT22;10231;47.702;9.826;2023-09-30T06:13:04;16.00;99.90
20141;DHT22;10231;47.702;9.826;2023-09-30T06:15:29;16.00;99.90
20141;DHT22;10231;47.702;9.826;2023-09-30T06:17:57;16.00;99.90
20141;DHT22;10231;47.702;9.826;2023-09-30T06:20:23;16.00;99.90
20141;DHT22;10231;47.702;9.826;2023-09-30T06:22:51;16.10;99.90
20141;DHT22;10231;47.702;9.826;2023-09-30T06:25:19;16.10;99.90
20141;DHT22;10231;47.702;9.826;2023-09-30T06:27:46;16.00;99.90
20141;DHT22;10231;47.702;9.826;2023-09-30T06:30:16;16.00;99.90
20141;DHT22;10231;47.702;9.826;2023-09-30T06:32:42;16.00;99.90
20141;DHT22;10231;47.702;9.826;2023-09-30T06:35:08;16.00;99.90
20141;DHT22;10231;47.702;9.826;2023-09-30T06:37:39;16.00;99.90
20141;DHT22;10231;47.702;9.826;2023-09-30T06:40:06;16.00;99.90
20141;DHT22;10231;47.702;9.826;2023-09-30T06:42:34;16.00;99.90
20141;DHT22;10231;47.702;9.826;2023-09-30T06:45:01;16.10;99.90
20141;DHT22;10231;47.702;9.826;2023-09-30T06:47:26;16.10;99.90
20141;DHT22;10231;47.702;9.826;2023-09-30T06:49:53;16.10;99.90
20141;DHT22;10231;47.702;9.826;2023-09-30T06:52:18;16.20;99.90
20141;DHT22;10231;47.702;9.826;2023-09-30T06:54:45;16.20;99.90
20141;DHT22;10231;47.702;9.826;2023-09-30T06:57:10;16.20;99.90
20141;DHT22;10231;47.702;9.826;2023-09-30T06:59:36;16.20;99.90
20141;DHT22;10231;47.702;9.826;2023-09-30T07:02:03;16.10;99.90
20141;DHT22;10231;47.702;9.826;2023-09-30T07:04:30;16.10;99.90
20141;DHT22;10231;47.702;9.826;2023-09-30T07:06:55;16.10;99.90
20141;DHT22;10231;47.702;9.826;2023-09-30T07:09:21;16.10;99.90
20141;DHT22;10231;47.702;9.826;2023-09-30T07:11:46;16.10;99.90
20141;DHT22;10231;47.702;9.826;2023-09-30T07:14:14;16.20;99.90
20141;DHT22;10231;47.702;9.826;2023-09-30T07:16:40;16.20;99.90
20141;DHT22;10231;47.702;9.826;2023-09-30T07:19:05;16.30;99.90
20141;DHT22;10231;47.702;9.826;2023-09-30T07:21:31;16.30;99.90
20141;DHT22;10231;47.702;9.826;2023-09-30T07:23:57;16.30;99.90
20141;DHT22;10231;47.702;9.826;2023-09-30T07:26:25;16.30;99.90
20141;DHT22;10231;47.702;9.826;2023-09-30T07:28:51;16.30;99.90
20141;DHT22;10231;47.702;9.826;2023-09-30T07:31:19;16.30;99.90
20141;DHT22;10231;47.702;9.826;2023-09-30T07:33:45;16.40;99.90
20141;DHT22;10231;47.702;9.826;2023-09-30T07:36:10;16.50;99.90
20141;DHT22;10231;47.702;9.826;2023-09-30T07:38:36;16.50;99.90
20141;DHT22;10231;47.702;9.826;2023-09-30T07:41:01;16.50;99.90
20141;DHT22;10231;47.702;9.826;2023-09-30T07:43:28;16.60;99.90
20141;DHT22;10231;47.702;9.826;2023-09-30T07:45:54;16.50;99.90
20141;DHT22;10231;47.702;9.826;2023-09-30T07:48:19;16.50;99.90
20141;DHT22;10231;47.702;9.826;2023-09-30T07:50:45;16.50;99.90
20141;DHT22;10231;47.702;9.826;2023-09-30T07:53:12;16.60;99.90
20141;DHT22;10231;47.702;9.826;2023-09-30T07:55:38;16.60;99.90
20141;DHT22;10231;47.702;9.826;2023-09-30T07:58:04;16.70;99.90
20141;DHT22;10231;47.702;9.826;2023-09-30T08:00:30;16.70;99.90
20141;DHT22;10231;47.702;9.826;2023-09-30T08:02:56;16.80;99.90
20141;DHT22;10231;47.702;9.826;2023-09-30T08:05:22;16.80;99.90
20141;DHT22;10231;47.702;9.826;2023-09-30T08:07:47;16.80;99.90
20141;DHT22;10231;47.702;9.826;2023-09-30T08:10:13;16.90;99.90
20141;DHT22;10231;47.702;9.826;2023-09-30T08:12:40;17.00;99.90
20141;DHT22;10231;47.702;9.826;2023-09-30T08:15:06;17.00;99.90
20141;DHT22;10231;47.702;9.826;2023-09-30T08:17:32;17.00;99.90
20141;DHT22;10231;47.702;9.826;2023-09-30T08:19:59;17.10;99.90
20141;DHT22;10231;47.702;9.826;2023-09-30T08:22:24;17.10;99.90
20141;DHT22;10231;47.702;9.826;2023-09-30T08:24:54;17.10;99.90
20141;DHT22;10231;47.702;9.826;2023-09-30T08:27:20;17.10;99.90
20141;DHT22;10231;47.702;9.826;2023-09-30T08:29:45;17.10;99.90
20141;DHT22;10231;47.702;9.826;2023-09-30T08:32:11;17.20;99.90
20141;DHT22;10231;47.702;9.826;2023-09-30T08:34:37;17.30;99.90
20141;DHT22;10231;47.702;9.826;2023-09-30T08:37:02;17.30;99.90
20141;DHT22;10231;47.702;9.826;2023-09-30T08:39:29;17.30;99.90
20141;DHT22;10231;47.702;9.826;2023-09-30T08:41:55;17.40;99.90
20141;DHT22;10231;47.702;9.826;2023-09-30T08:44:21;17.40;99.90
20141;DHT22;10231;47.702;9.826;2023-09-30T08:46:48;17.50;99.90
20141;DHT22;10231;47.702;9.826;2023-09-30T08:49:15;17.50;99.90
20141;DHT22;10231;47.702;9.826;2023-09-30T08:51:41;17.60;99.90
20141;DHT22;10231;47.702;9.826;2023-09-30T08:54:07;17.60;99.90
20141;DHT22;10231;47.702;9.826;2023-09-30T08:56:32;17.60;99.90
20141;DHT22;10231;47.702;9.826;2023-09-30T08:58:59;17.60;99.90
20141;DHT22;10231;47.702;9.826;2023-09-30T09:01:27;17.70;99.90
20141;DHT22;10231;47.702;9.826;2023-09-30T09:03:53;17.70;99.90
20141;DHT22;10231;47.702;9.826;2023-09-30T09:06:22;17.70;99.90
20141;DHT22;10231;47.702;9.826;2023-09-30T09:08:48;17.80;99.90
20141;DHT22;10231;47.702;9.826;2023-09-30T09:11:14;17.80;99.90
20141;DHT22;10231;47.702;9.826;2023-09-30T09:13:51;17.90;99.90
20141;DHT22;10231;47.702;9.826;2023-09-30T09:16:22;17.90;99.90
20141;DHT22;10231;47.702;9.826;2023-09-30T09:18:48;17.90;99.90
20141;DHT22;10231;47.702;9.826;2023-09-30T09:23:44;17.90;99.90
20141;DHT22;10231;47.702;9.826;2023-09-30T09:26:11;17.90;99.90
20141;DHT22;10231;47.702;9.826;2023-09-30T09:28:37;17.90;99.90
20141;DHT22;10231;47.702;9.826;2023-09-30T09:31:20;17.80;99.90
20141;DHT22;10231;47.702;9.826;2023-09-30T09:33:47;17.80;99.90
20141;DHT22;10231;47.702;9.826;2023-09-30T09:36:13;17.90;99.90
20141;DHT22;10231;47.702;9.826;2023-09-30T09:38:59;18.00;99.90
20141;DHT22;10231;47.702;9.826;2023-09-30T09:41:24;18.00;99.90
20141;DHT22;10231;47.702;9.826;2023-09-30T09:43:50;18.10;99.90
20141;DHT22;10231;47.702;9.826;2023-09-30T09:46:18;18.10;99.90
20141;DHT22;10231;47.702;9.826;2023-09-30T09:48:45;18.10;99.90
20141;DHT22;10231;47.702;9.826;2023-09-30T09:51:13;18.10;99.90
20141;DHT22;10231;47.702;9.826;2023-09-30T09:53:41;18.10;99.90
20141;DHT22;10231;47.702;9.826;2023-09-30T09:56:12;18.10;99.90
20141;DHT22;10231;47.702;9.826;2023-09-30T09:58:40;18.20;99.90
20141;DHT22;10231;47.702;9.826;2023-09-30T10:01:12;18.20;99.90
20141;DHT22;10231;47.702;9.826;2023-09-30T10:03:38;18.20;99.90
20141;DHT22;10231;47.702;9.826;2023-09-30T10:06:04;18.20;99.90
20141;DHT22;10231;47.702;9.826;2023-09-30T10:08:35;18.20;99.90
20141;DHT22;10231;47.702;9.826;2023-09-30T10:11:02;18.30;99.90
20141;DHT22;10231;47.702;9.826;2023-09-30T10:19:16;18.40;99.90
20141;DHT22;10231;47.702;9.826;2023-09-30T10:24:48;18.50;99.90
20141;DHT22;10231;47.702;9.826;2023-09-30T10:27:28;18.60;99.90
20141;DHT22;10231;47.702;9.826;2023-09-30T10:29:57;18.60;99.90
20141;DHT22;10231;47.702;9.826;2023-09-30T10:38:58;18.70;99.90
20141;DHT22;10231;47.702;9.826;2023-09-30T10:41:00;18.70;99.90
20141;DHT22;10231;47.702;9.826;2023-09-30T10:43:35;18.80;99.90
20141;DHT22;10231;47.702;9.826;2023-09-30T10:46:47;18.90;99.90
20141;DHT22;10231;47.702;9.826;2023-09-30T10:48:47;18.90;99.90
20141;DHT22;10231;47.702;9.826;2023-09-30T10:51:18;18.90;99.90
20141;DHT22;10231;47.702;9.826;2023-09-30T10:53:53;18.90;99.90
20141;DHT22;10231;47.702;9.826;2023-09-30T10:56:23;19.00;99.90
20141;DHT22;10231;47.702;9.826;2023-09-30T10:58:50;19.10;99.90
20141;DHT22;10231;47.702;9.826;2023-09-30T11:01:18;19.10;99.90
20141;DHT22;10231;47.702;9.826;2023-09-30T11:03:45;19.10;99.90
20141;DHT22;10231;47.702;9.826;2023-09-30T11:06:12;19.10;99.90
20141;DHT22;10231;47.702;9.826;2023-09-30T11:08:45;19.10;99.90
20141;DHT22;10231;47.702;9.826;2023-09-30T11:11:11;19.10;99.90
20141;DHT22;10231;47.702;9.826;2023-09-30T11:13:37;19.10;99.90
20141;DHT22;10231;47.702;9.826;2023-09-30T11:16:04;19.10;99.90
20141;DHT22;10231;47.702;9.826;2023-09-30T11:18:31;19.10;99.90
20141;DHT22;10231;47.702;9.826;2023-09-30T11:21:04;19.10;99.90
20141;DHT22;10231;47.702;9.826;2023-09-30T11:23:31;19.10;99.90
20141;DHT22;10231;47.702;9.826;2023-09-30T11:25:57;19.20;99.90
20141;DHT22;10231;47.702;9.826;2023-09-30T11:28:22;19.20;99.90
20141;DHT22;10231;47.702;9.826;2023-09-30T11:30:59;19.30;99.90
20141;DHT22;10231;47.702;9.826;2023-09-30T11:33:26;19.30;99.90
20141;DHT22;10231;47.702;9.826;2023-09-30T11:38:24;19.30;99.90
20141;DHT22;10231;47.702;9.826;2023-09-30T11:41:04;19.40;99.90
20141;DHT22;10231;47.702;9.826;2023-09-30T11:43:31;19.40;99.90
20141;DHT22;10231;47.702;9.826;2023-09-30T11:46:09;19.40;99.90
20141;DHT22;10231;47.702;9.826;2023-09-30T11:48:36;19.40;99.90
20141;DHT22;10231;47.702;9.826;2023-09-30T11:51:03;19.40;99.90
20141;DHT22;10231;47.702;9.826;2023-09-30T11:53:30;19.40;99.90
20141;DHT22;10231;47.702;9.826;2023-09-30T11:55:57;19.50;99.90
20141;DHT22;10231;47.702;9.826;2023-09-30T11:58:25;19.50;99.90
20141;DHT22;10231;47.702;9.826;2023-09-30T12:00:57;19.50;99.90
20141;DHT22;10231;47.702;9.826;2023-09-30T12:03:25;19.50;99.90
20141;DHT22;10231;47.702;9.826;2023-09-30T12:05:53;19.60;99.90
20141;DHT22;10231;47.702;9.826;2023-09-30T12:08:21;19.60;99.90
20141;DHT22;10231;47.702;9.826;2023-09-30T12:10:47;19.70;99.90
20141;DHT22;10231;47.702;9.826;2023-09-30T12:13:12;19.70;99.90
20141;DHT22;10231;47.702;9.826;2023-09-30T12:15:41;19.70;99.90
20141;DHT22;10231;47.702;9.826;2023-09-30T12:18:06;19.70;99.90
20141;DHT22;10231;47.702;9.826;2023-09-30T12:20:32;19.80;99.90
20141;DHT22;10231;47.702;9.826;2023-09-30T12:22:58;19.90;99.90
20141;DHT22;10231;47.702;9.826;2023-09-30T12:25:24;20.00;99.90
20141;DHT22;10231;47.702;9.826;2023-09-30T12:27:50;20.00;99.90
20141;DHT22;10231;47.702;9.826;2023-09-30T12:30:16;20.10;99.90
20141;DHT22;10231;47.702;9.826;2023-09-30T12:32:45;20.20;99.90
20141;DHT22;10231;47.702;9.826;2023-09-30T12:35:11;20.10;99.90
20141;DHT22;10231;47.702;9.826;2023-09-30T12:37:37;20.20;99.90
20141;DHT22;10231;47.702;9.826;2023-09-30T12:40:07;20.30;99.90
20141;DHT22;10231;47.702;9.826;2023-09-30T12:42:33;20.30;99.90
20141;DHT22;10231;47.702;9.826;2023-09-30T12:45:01;20.30;99.90
20141;DHT22;10231;47.702;9.826;2023-09-30T12:47:28;20.30;99.90
20141;DHT22;10231;47.702;9.826;2023-09-30T12:49:53;20.40;99.90
20141;DHT22;10231;47.702;9.826;2023-09-30T12:52:22;20.40;99.90
20141;DHT22;10231;47.702;9.826;2023-09-30T12:54:48;20.40;99.90
20141;DHT22;10231;47.702;9.826;2023-09-30T12:57:14;20.50;99.90
20141;DHT22;10231;47.702;9.826;2023-09-30T12:59:43;20.60;99.90
20141;DHT22;10231;47.702;9.826;2023-09-30T13:02:11;20.80;99.90
20141;DHT22;10231;47.702;9.826;2023-09-30T13:04:37;20.80;99.90
20141;DHT22;10231;47.702;9.826;2023-09-30T13:07:08;20.90;99.90
20141;DHT22;10231;47.702;9.826;2023-09-30T13:09:34;21.00;99.90
20141;DHT22;10231;47.702;9.826;2023-09-30T13:11:59;21.10;99.90
20141;DHT22;10231;47.702;9.826;2023-09-30T13:14:25;21.20;99.90
20141;DHT22;10231;47.702;9.826;2023-09-30T13:16:53;21.20;99.90
20141;DHT22;10231;47.702;9.826;2023-09-30T13:19:19;21.10;99.90
20141;DHT22;10231;47.702;9.826;2023-09-30T13:21:47;21.20;99.90
20141;DHT22;10231;47.702;9.826;2023-09-30T13:24:13;21.30;99.90
20141;DHT22;10231;47.702;9.826;2023-09-30T13:26:39;21.30;99.90
20141;DHT22;10231;47.702;9.826;2023-09-30T13:29:05;21.10;99.90
20141;DHT22;10231;47.702;9.826;2023-09-30T13:31:31;21.10;99.90
20141;DHT22;10231;47.702;9.826;2023-09-30T13:33:56;21.00;99.90
20141;DHT22;10231;47.702;9.826;2023-09-30T13:36:22;21.00;99.90
20141;DHT22;10231;47.702;9.826;2023-09-30T13:38:48;21.00;99.90
20141;DHT22;10231;47.702;9.826;2023-09-30T13:41:14;21.10;99.90
20141;DHT22;10231;47.702;9.826;2023-09-30T13:43:41;21.20;99.90
20141;DHT22;10231;47.702;9.826;2023-09-30T13:46:07;21.40;99.90
20141;DHT22;10231;47.702;9.826;2023-09-30T13:48:33;21.30;99.90
20141;DHT22;10231;47.702;9.826;2023-09-30T13:51:09;21.30;99.90
20141;DHT22;10231;47.702;9.826;2023-09-30T13:53:34;21.20;99.90
20141;DHT22;10231;47.702;9.826;2023-09-30T13:56:01;21.20;99.90
20141;DHT22;10231;47.702;9.826;2023-09-30T13:58:27;21.10;99.90
20141;DHT22;10231;47.702;9.826;2023-09-30T14:00:56;20.90;99.90
20141;DHT22;10231;47.702;9.826;2023-09-30T14:03:24;20.70;99.90
20141;DHT22;10231;47.702;9.826;2023-09-30T14:05:56;20.70;99.90
20141;DHT22;10231;47.702;9.826;2023-09-30T14:08:33;20.60;99.90
20141;DHT22;10231;47.702;9.826;2023-09-30T14:11:03;20.50;99.90
20141;DHT22;10231;47.702;9.826;2023-09-30T14:13:31;20.30;99.90
20141;DHT22;10231;47.702;9.826;2023-09-30T14:16:00;20.60;99.90
20141;DHT22;10231;47.702;9.826;2023-09-30T14:18:28;20.90;99.90
20141;DHT22;10231;47.702;9.826;2023-09-30T14:21:13;21.30;99.90
20141;DHT22;10231;47.702;9.826;2023-09-30T14:23:40;21.70;99.90
20141;DHT22;10231;47.702;9.826;2023-09-30T14:26:08;22.00;99.90
20141;DHT22;10231;47.702;9.826;2023-09-30T14:28:37;22.20;99.90
20141;DHT22;10231;47.702;9.826;2023-09-30T14:31:07;22.50;99.90
20141;DHT22;10231;47.702;9.826;2023-09-30T14:33:36;22.80;99.90
20141;DHT22;10231;47.702;9.826;2023-09-30T14:36:06;22.80;99.90
20141;DHT22;10231;47.702;9.826;2023-09-30T14:38:40;23.00;99.90
20141;DHT22;10231;47.702;9.826;2023-09-30T14:41:09;23.20;99.90
20141;DHT22;10231;47.702;9.826;2023-09-30T14:43:38;23.30;99.90
20141;DHT22;10231;47.702;9.826;2023-09-30T14:46:06;23.50;99.90
20141;DHT22;10231;47.702;9.826;2023-09-30T14:48:34;23.50;99.90
20141;DHT22;10231;47.702;9.826;2023-09-30T14:51:02;23.30;99.90
20141;DHT22;10231;47.702;9.826;2023-09-30T14:53:31;22.80;99.90
20141;DHT22;10231;47.702;9.826;2023-09-30T14:55:58;22.70;99.90
20141;DHT22;10231;47.702;9.826;2023-09-30T14:58:25;22.40;99.90
20141;DHT22;10231;47.702;9.826;2023-09-30T15:00:53;22.20;99.90
20141;DHT22;10231;47.702;9.826;2023-09-30T15:03:22;22.00;99.90
20141;DHT22;10231;47.702;9.826;2023-09-30T15:05:48;21.90;99.90
20141;DHT22;10231;47.702;9.826;2023-09-30T15:08:24;21.60;99.90
20141;DHT22;10231;47.702;9.826;2023-09-30T15:10:52;21.40;99.90
20141;DHT22;10231;47.702;9.826;2023-09-30T15:13:27;21.20;99.90
20141;DHT22;10231;47.702;9.826;2023-09-30T15:15:56;21.00;99.90
20141;DHT22;10231;47.702;9.826;2023-09-30T15:18:24;20.80;99.90
20141;DHT22;10231;47.702;9.826;2023-09-30T15:20:55;20.80;99.90
20141;DHT22;10231;47.702;9.826;2023-09-30T15:23:22;20.70;99.90
20141;DHT22;10231;47.702;9.826;2023-09-30T15:25:50;20.70;99.90
20141;DHT22;10231;47.702;9.826;2023-09-30T15:28:17;20.70;99.90
20141;DHT22;10231;47.702;9.826;2023-09-30T15:30:53;20.60;99.90
20141;DHT22;10231;47.702;9.826;2023-09-30T15:33:21;20.60;99.90
20141;DHT22;10231;47.702;9.826;2023-09-30T15:35:51;20.70;99.90
20141;DHT22;10231;47.702;9.826;2023-09-30T15:38:23;20.90;99.90
20141;DHT22;10231;47.702;9.826;2023-09-30T15:40:55;21.20;99.90
20141;DHT22;10231;47.702;9.826;2023-09-30T15:43:24;21.60;99.90
20141;DHT22;10231;47.702;9.826;2023-09-30T15:45:52;21.80;99.90
20141;DHT22;10231;47.702;9.826;2023-09-30T15:48:25;22.00;99.90
20141;DHT22;10231;47.702;9.826;2023-09-30T15:50:56;22.20;99.90